Time;durP1;ratioP1;P1;durP2;ratioP2;P2;SDS_P1;SDS_P2;PMS_P1;PMS_P2;Temp;Humidity;BMP_temperature;BMP_pressure;BME280_temperature;BME280_humidity;BME280_pressure;Samples;Min_cycle;Max_cycle;Signal;HPM_P1;HPM_P2
2024/01/25 00:00:18;;;;;;;;;;;;;;;8.86;72.06;101106.44;4210859;28;20030;-68
2024/01/25 00:02:21;;;;;;;;;;;;;;;8.85;72.07;101118.19;4210912;28;20023;-69
2024/01/25 00:04:23;;;;;;;;;;;;;;;8.86;72.64;101106.44;4211451;28;20018;-68
2024/01/25 00:06:25;;;;;;;;;;;;;;;8.84;72.51;101117.38;4211489;28;20485;-69
2024/01/25 00:08:27;;;;;;;;;;;;;;;8.86;72.45;101116.38;4211382;28;20022;-68
2024/01/25 00:10:28;;;;;;;;;;;;;;;8.85;72.61;101107.44;4211255;28;20047;-69
2024/01/25 00:12:30;;;;;;;;;;;;;;;8.88;72.89;101119.75;4210302;28;19958;-69
2024/01/25 00:14:32;;;;;;;;;;;;;;;8.86;72.81;101110.97;4210874;28;20019;-68
2024/01/25 00:16:34;;;;;;;;;;;;;;;8.86;73.23;101119.91;4211076;28;20035;-69
2024/01/25 00:18:37;;;;;;;;;;;;;;;8.84;73.19;101130.81;4211281;28;20404;-68
2024/01/25 00:20:39;;;;;;;;;;;;;;;8.86;73.40;101119.91;4209757;28;20019;-68
2024/01/25 00:22:42;;;;;;;;;;;;;;;8.86;73.24;101138.75;4210975;28;20761;-66
2024/01/25 00:24:44;;;;;;;;;;;;;;;8.85;73.27;101131.66;4211752;28;20024;-68
2024/01/25 00:26:46;;;;;;;;;;;;;;;8.83;73.44;101134.50;4211375;28;19924;-69
2024/01/25 00:28:48;;;;;;;;;;;;;;;8.82;73.19;101146.31;4209363;28;20002;-69
2024/01/25 00:30:50;;;;;;;;;;;;;;;8.81;72.93;101139.22;4210668;28;20366;-68
2024/01/25 00:32:52;;;;;;;;;;;;;;;8.80;72.86;101134.00;4211052;28;20028;-69
2024/01/25 00:34:56;;;;;;;;;;;;;;;8.78;72.85;101133.31;4211958;28;20039;-66
2024/01/25 00:36:58;;;;;;;;;;;;;;;8.78;72.92;101133.31;4210448;28;20014;-69
2024/01/25 00:39:00;;;;;;;;;;;;;;;8.77;73.09;101137.00;4211368;28;20019;-69
2024/01/25 00:41:03;;;;;;;;;;;;;;;8.77;72.90;101139.69;4210377;28;20023;-69
2024/01/25 00:43:05;;;;;;;;;;;;;;;8.77;73.45;101143.22;4210272;28;20014;-69
2024/01/25 00:45:07;;;;;;;;;;;;;;;8.79;73.68;101134.97;4211246;28;20040;-69
2024/01/25 00:47:10;;;;;;;;;;;;;;;8.78;73.46;101139.53;4226404;28;20019;-70
2024/01/25 00:49:12;;;;;;;;;;;;;;;8.77;73.21;101139.69;4210412;28;20390;-69
2024/01/25 00:51:16;;;;;;;;;;;;;;;8.75;73.65;101139.00;4209727;28;20637;-69
2024/01/25 00:53:19;;;;;;;;;;;;;;;8.76;73.26;101140.69;4211285;28;20437;-67
2024/01/25 00:55:21;;;;;;;;;;;;;;;8.78;73.80;101152.16;4211580;28;20031;-69
2024/01/25 00:57:22;;;;;;;;;;;;;;;8.77;73.50;101142.38;4210859;28;20027;-69
2024/01/25 00:59:25;;;;;;;;;;;;;;;8.78;73.50;101146.78;4209484;28;20006;-68
2024/01/25 01:01:28;;;;;;;;;;;;;;;8.77;73.85;101145.91;4209709;28;19924;-69
2024/01/25 01:03:30;;;;;;;;;;;;;;;8.76;73.44;101151.44;4211337;28;20508;-69
2024/01/25 01:05:32;;;;;;;;;;;;;;;8.76;73.42;101143.38;4211633;28;20072;-69
2024/01/25 01:07:36;;;;;;;;;;;;;;;8.77;73.60;101139.69;4208816;28;19924;-69
2024/01/25 01:09:37;;;;;;;;;;;;;;;8.75;73.39;101158.69;4210905;28;20047;-69
2024/01/25 01:11:39;;;;;;;;;;;;;;;8.76;73.42;101129.91;4210690;28;20043;-69
2024/01/25 01:13:41;;;;;;;;;;;;;;;8.74;73.49;101130.06;4211329;28;20070;-69
2024/01/25 01:15:42;;;;;;;;;;;;;;;8.75;73.45;101142.53;4210576;28;20476;-69
2024/01/25 01:17:44;;;;;;;;;;;;;;;8.74;73.09;101121.97;4211508;28;19935;-69
2024/01/25 01:19:45;;;;;;;;;;;;;;;8.74;72.87;101127.38;4210383;28;20027;-69
2024/01/25 01:21:47;;;;;;;;;;;;;;;8.76;73.11;101143.38;4211200;28;20377;-68
2024/01/25 01:23:49;;;;;;;;;;;;;;;8.76;73.25;101148.75;4211173;28;20023;-69
2024/01/25 01:25:51;;;;;;;;;;;;;;;8.75;73.65;101147.09;4211233;28;20019;-69
2024/01/25 01:27:53;;;;;;;;;;;;;;;8.74;72.99;101138.13;4210454;28;19929;-69
2024/01/25 01:29:55;;;;;;;;;;;;;;;8.73;72.94;101135.59;4209854;28;20383;-68
2024/01/25 01:31:57;;;;;;;;;;;;;;;8.73;72.91;101139.16;4209050;28;20692;-68
2024/01/25 01:34:00;;;;;;;;;;;;;;;8.74;73.01;101148.91;4210496;28;20030;-69
2024/01/25 01:36:02;;;;;;;;;;;;;;;8.76;73.04;101149.63;4199970;28;20026;-67
2024/01/25 01:38:04;;;;;;;;;;;;;;;8.76;72.62;101146.06;4210352;28;20018;-68
2024/01/25 01:40:08;;;;;;;;;;;;;;;8.75;72.68;101149.78;4209724;28;20027;-69
2024/01/25 01:42:10;;;;;;;;;;;;;;;8.73;72.33;101149.06;4208174;28;20015;-69
2024/01/25 01:44:12;;;;;;;;;;;;;;;8.72;72.08;101155.47;4210665;28;20023;-69
2024/01/25 01:46:17;;;;;;;;;;;;;;;8.72;72.40;101153.63;4210372;28;20011;-69
2024/01/25 01:48:19;;;;;;;;;;;;;;;8.72;72.49;101144.69;4211199;28;19932;-69
2024/01/25 01:50:21;;;;;;;;;;;;;;;8.72;72.69;101156.31;4212378;28;19941;-69
2024/01/25 01:52:23;;;;;;;;;;;;;;;8.73;72.58;101159.84;4213592;28;20048;-68
2024/01/25 01:54:25;;;;;;;;;;;;;;;8.72;72.74;101161.69;4212411;28;20023;-69
2024/01/25 01:56:28;;;;;;;;;;;;;;;8.71;72.46;101170.75;4214332;28;20015;-69
2024/01/25 01:58:30;;;;;;;;;;;;;;;8.72;72.17;101169.78;4214068;28;20764;-69
2024/01/25 02:00:32;;;;;;;;;;;;;;;8.71;72.58;101186.09;4213417;28;20019;-69
2024/01/25 02:02:34;;;;;;;;;;;;;;;8.70;72.25;101166.41;4213338;28;20019;-69
2024/01/25 02:04:36;;;;;;;;;;;;;;;8.71;72.39;101186.09;4212669;28;19928;-69
2024/01/25 02:06:37;;;;;;;;;;;;;;;8.72;72.59;101190.47;4212644;28;20346;-69
2024/01/25 02:08:39;;;;;;;;;;;;;;;8.73;72.33;101201.09;4214641;28;19928;-68
2024/01/25 02:10:41;;;;;;;;;;;;;;;8.71;71.74;101181.53;4212573;28;20019;-68
2024/01/25 02:12:44;;;;;;;;;;;;;;;8.71;71.98;101194.16;4212690;28;20018;-67
2024/01/25 02:14:46;;;;;;;;;;;;;;;8.70;72.06;101190.63;4212657;28;20058;-69
2024/01/25 02:16:48;;;;;;;;;;;;;;;8.70;71.69;101195.16;4214298;28;20027;-69
2024/01/25 02:18:50;;;;;;;;;;;;;;;8.69;71.80;101191.63;4212497;28;20026;-69
2024/01/25 02:20:52;;;;;;;;;;;;;;;8.67;71.80;101199.03;4213059;28;20449;-68
2024/01/25 02:22:55;;;;;;;;;;;;;;;8.67;71.94;101204.41;4214071;28;20019;-69
2024/01/25 02:24:57;;;;;;;;;;;;;;;8.67;71.63;101196.31;4213402;28;20034;-69
2024/01/25 02:26:59;;;;;;;;;;;;;;;8.68;72.18;101189.91;4212496;28;20022;-69
2024/01/25 02:29:01;;;;;;;;;;;;;;;8.68;71.76;101224.94;4212476;28;19953;-68
2024/01/25 02:31:02;;;;;;;;;;;;;;;8.66;71.38;101202.69;4227762;28;20049;-69
2024/01/25 02:33:04;;;;;;;;;;;;;;;8.69;71.91;101177.31;4212406;28;20018;-68
2024/01/25 02:35:05;;;;;;;;;;;;;;;8.67;71.99;101190.94;4211931;28;20022;-68
2024/01/25 02:37:07;;;;;;;;;;;;;;;8.65;71.64;101201.88;4212234;28;20007;-69
2024/01/25 02:39:11;;;;;;;;;;;;;;;8.64;71.74;101192.09;4213274;28;20015;-70
2024/01/25 02:41:13;;;;;;;;;;;;;;;8.64;71.91;101188.56;4212509;28;20027;-69
2024/01/25 02:43:15;;;;;;;;;;;;;;;8.65;71.62;101201.88;4210110;28;19928;-69
2024/01/25 02:45:17;;;;;;;;;;;;;;;8.65;71.71;101201.00;4211947;28;20032;-69
2024/01/25 02:47:19;;;;;;;;;;;;;;;8.63;71.88;101179.59;4213374;28;20019;-68
2024/01/25 02:49:21;;;;;;;;;;;;;;;8.63;71.46;101179.59;4212469;28;19981;-69
2024/01/25 02:51:23;;;;;;;;;;;;;;;8.63;71.66;101185.00;4210628;28;20026;-68
2024/01/25 02:53:24;;;;;;;;;;;;;;;8.63;71.76;101203.84;4213252;28;20019;-68
2024/01/25 02:55:28;;;;;;;;;;;;;;;8.64;71.66;101175.94;4212803;28;20014;-67
2024/01/25 02:57:31;;;;;;;;;;;;;;;8.63;71.71;101186.84;4212811;28;20018;-69
2024/01/25 02:59:33;;;;;;;;;;;;;;;8.61;71.36;101195.09;4211886;28;20023;-68
2024/01/25 03:01:38;;;;;;;;;;;;;;;8.61;71.51;101205.84;4212234;28;20022;-68
2024/01/25 03:03:40;;;;;;;;;;;;;;;8.60;71.43;101190.69;4213276;28;20433;-69
2024/01/25 03:05:42;;;;;;;;;;;;;;;8.59;71.36;101220.44;4212901;28;20026;-68
2024/01/25 03:07:44;;;;;;;;;;;;;;;8.58;71.75;101200.78;4213119;28;20015;-69
2024/01/25 03:09:46;;;;;;;;;;;;;;;8.57;71.16;101212.53;4211927;28;19928;-69
2024/01/25 03:11:48;;;;;;;;;;;;;;;8.57;71.30;101204.44;4210943;28;20026;-69
2024/01/25 03:13:50;;;;;;;;;;;;;;;8.58;71.20;101210.72;4210900;28;20019;-70
2024/01/25 03:15:53;;;;;;;;;;;;;;;8.59;71.54;101198.91;4211394;28;20023;-68
2024/01/25 03:17:54;;;;;;;;;;;;;;;8.58;71.55;101208.00;4212466;28;20027;-68
2024/01/25 03:19:56;;;;;;;;;;;;;;;8.59;71.69;101209.69;4213152;28;20006;-68
2024/01/25 03:21:58;;;;;;;;;;;;;;;8.57;71.10;101212.53;4211910;28;20053;-68
2024/01/25 03:24:00;;;;;;;;;;;;;;;8.56;70.67;101199.25;4212131;28;20035;-69
2024/01/25 03:26:01;;;;;;;;;;;;;;;8.58;71.13;101216.09;4211088;28;20391;-68
2024/01/25 03:28:06;;;;;;;;;;;;;;;8.58;71.42;101195.38;4214134;28;20609;-69
2024/01/25 03:30:09;;;;;;;;;;;;;;;8.57;71.24;101204.44;4212365;28;20418;-69
2024/01/25 03:32:11;;;;;;;;;;;;;;;8.59;71.32;101223.16;4209779;28;20322;-68
2024/01/25 03:34:13;;;;;;;;;;;;;;;8.58;71.15;101227.69;4211961;28;20059;-69
2024/01/25 03:36:15;;;;;;;;;;;;;;;8.57;71.42;101220.59;4213562;28;20432;-70
2024/01/25 03:38:17;;;;;;;;;;;;;;;8.58;71.62;101214.22;4212681;28;20026;-70
2024/01/25 03:40:19;;;;;;;;;;;;;;;8.56;70.96;101240.47;4211569;28;20027;-70
2024/01/25 03:42:21;;;;;;;;;;;;;;;8.58;70.97;101221.47;4212935;28;20015;-70
2024/01/25 03:44:44;;;;;;;;;;;;;;;8.56;70.74;101237.78;4213459;28;20040;-70
2024/01/25 03:46:45;;;;;;;;;;;;;;;8.56;70.44;101221.63;4214396;28;20018;-69
2024/01/25 03:48:47;;;;;;;;;;;;;;;8.58;71.13;101225.00;4214259;28;20024;-70
2024/01/25 03:50:49;;;;;;;;;;;;;;;8.56;70.91;101231.56;4211340;28;20381;-70
2024/01/25 03:52:51;;;;;;;;;;;;;;;8.55;70.19;101236.06;4214143;28;20007;-70
2024/01/25 03:54:53;;;;;;;;;;;;;;;8.54;70.00;101225.47;4214000;28;19996;-70
2024/01/25 03:56:55;;;;;;;;;;;;;;;8.54;70.44;101231.72;4215507;28;20083;-70
2024/01/25 03:58:57;;;;;;;;;;;;;;;8.53;70.38;101238.09;4214027;28;20362;-70
2024/01/25 04:01:01;;;;;;;;;;;;;;;8.55;70.52;101232.53;4212716;28;20018;-70
2024/01/25 04:03:03;;;;;;;;;;;;;;;8.54;69.94;101228.16;4212677;28;20411;-69
2024/01/25 04:05:05;;;;;;;;;;;;;;;8.53;69.95;101219.22;4214253;28;20026;-69
2024/01/25 04:07:07;;;;;;;;;;;;;;;8.52;70.10;101243.63;4214118;28;19999;-70
2024/01/25 04:09:11;;;;;;;;;;;;;;;8.52;69.85;101235.53;4212349;28;19924;-70
2024/01/25 04:11:13;;;;;;;;;;;;;;;8.51;70.12;101228.44;4211927;28;19928;-70
2024/01/25 04:13:15;;;;;;;;;;;;;;;8.51;70.77;101245.47;4213157;28;20022;-69
2024/01/25 04:15:17;;;;;;;;;;;;;;;8.51;70.70;101250.84;4212322;28;20003;-68
2024/01/25 04:17:20;;;;;;;;;;;;;;;8.50;70.32;101246.47;4213848;28;19959;-70
2024/01/25 04:19:22;;;;;;;;;;;;;;;8.50;69.36;101248.31;4213982;28;20015;-69
2024/01/25 04:21:24;;;;;;;;;;;;;;;8.50;69.67;101246.47;4213341;28;20011;-69
2024/01/25 04:23:26;;;;;;;;;;;;;;;8.48;69.88;101256.53;4212760;28;20018;-67
2024/01/25 04:25:28;;;;;;;;;;;;;;;8.48;69.94;101276.22;4213795;28;20063;-70
2024/01/25 04:27:30;;;;;;;;;;;;;;;8.50;70.29;101275.25;4213740;28;20020;-70
2024/01/25 04:29:32;;;;;;;;;;;;;;;8.48;70.33;101276.22;4212531;28;19963;-70
2024/01/25 04:31:34;;;;;;;;;;;;;;;8.51;70.62;101272.41;4211890;28;19928;-70
2024/01/25 04:33:38;;;;;;;;;;;;;;;8.50;70.71;101280.63;4212202;28;20418;-70
2024/01/25 04:35:40;;;;;;;;;;;;;;;8.50;70.53;101275.25;4213672;28;20035;-70
2024/01/25 04:37:42;;;;;;;;;;;;;;;8.48;69.93;101261.94;4212354;28;20348;-70
2024/01/25 04:39:44;;;;;;;;;;;;;;;8.48;69.82;101292.38;4204714;28;19929;-69
2024/01/25 04:41:46;;;;;;;;;;;;;;;8.48;70.18;101292.38;4212349;28;20099;-69
2024/01/25 04:43:48;;;;;;;;;;;;;;;8.49;70.46;101279.75;4212645;28;20006;-69
2024/01/25 04:45:50;;;;;;;;;;;;;;;8.48;70.45;101270.84;4212588;28;20046;-68
2024/01/25 04:47:52;;;;;;;;;;;;;;;8.47;70.68;101295.22;4211791;28;20007;-67
2024/01/25 04:49:55;;;;;;;;;;;;;;;8.47;70.74;101301.44;4211599;28;20018;-68
2024/01/25 04:51:57;;;;;;;;;;;;;;;8.46;70.01;101306.97;4212508;28;20429;-67
2024/01/25 04:53:58;;;;;;;;;;;;;;;8.48;70.13;101296.91;4213121;28;20777;-70
2024/01/25 04:56:00;;;;;;;;;;;;;;;8.47;70.50;101290.66;4211670;28;19952;-70
2024/01/25 04:58:02;;;;;;;;;;;;;;;8.46;70.38;101263.91;4212909;28;20023;-67
2024/01/25 05:00:05;;;;;;;;;;;;;;;8.46;70.20;101299.75;4227392;28;20030;-68
2024/01/25 05:02:07;;;;;;;;;;;;;;;8.47;70.47;101292.53;4211546;28;20014;-69
2024/01/25 05:04:09;;;;;;;;;;;;;;;8.47;71.25;101298.75;4211788;28;20036;-68
2024/01/25 05:06:11;;;;;;;;;;;;;;;8.48;70.97;101296.91;4211239;28;20028;-68
2024/01/25 05:08:13;;;;;;;;;;;;;;;8.47;71.12;101301.44;4211465;28;20035;-68
2024/01/25 05:10:15;;;;;;;;;;;;;;;8.47;70.98;101317.59;4211337;28;20011;-69
2024/01/25 05:12:18;;;;;;;;;;;;;;;8.45;70.91;101335.75;4212314;28;20019;-70
2024/01/25 05:14:20;;;;;;;;;;;;;;;8.47;71.25;101320.28;4209464;28;19936;-69
2024/01/25 05:16:22;;;;;;;;;;;;;;;8.47;70.67;101303.28;4210208;28;20022;-69
2024/01/25 05:18:24;;;;;;;;;;;;;;;8.45;71.02;101335.75;4211380;28;20023;-69
2024/01/25 05:20:31;;;;;;;;;;;;;;;8.44;70.38;101325.13;4209998;28;20015;-69
2024/01/25 05:22:39;;;;;;;;;;;;;;;8.43;70.76;101318.91;4209961;28;20058;-69
2024/01/25 05:24:41;;;;;;;;;;;;;;;8.43;70.63;101340.44;4213429;28;20046;-69
2024/01/25 05:26:43;;;;;;;;;;;;;;;8.42;70.34;101340.56;4215142;28;20034;-69
2024/01/25 05:28:45;;;;;;;;;;;;;;;8.41;70.58;101336.16;4211901;28;20020;-68
2024/01/25 05:30:47;;;;;;;;;;;;;;;8.41;70.98;101333.47;4212752;28;20027;-68
2024/01/25 05:32:50;;;;;;;;;;;;;;;8.40;71.03;101332.63;4212836;28;20399;-68
2024/01/25 05:34:52;;;;;;;;;;;;;;;8.43;71.31;101355.69;4214062;28;19947;-68
2024/01/25 05:36:54;;;;;;;;;;;;;;;8.42;70.72;101356.72;4213944;28;20384;-68
2024/01/25 05:38:57;;;;;;;;;;;;;;;8.40;70.69;101361.38;4221359;28;20027;-69
2024/01/25 05:40:59;;;;;;;;;;;;;;;8.41;70.41;101361.22;4210419;28;19996;-68
2024/01/25 05:43:01;;;;;;;;;;;;;;;8.41;70.34;101349.63;4210267;28;20369;-67
2024/01/25 05:45:03;;;;;;;;;;;;;;;8.41;70.38;101352.31;4212737;28;20011;-68
2024/01/25 05:47:05;;;;;;;;;;;;;;;8.39;70.01;101363.22;4212083;28;20026;-69
2024/01/25 05:49:07;;;;;;;;;;;;;;;8.39;69.63;101357.00;4212545;28;20011;-69
2024/01/25 05:51:10;;;;;;;;;;;;;;;8.39;70.07;101383.91;4210259;28;20023;-68
2024/01/25 05:53:12;;;;;;;;;;;;;;;8.38;69.98;101374.97;4213790;28;20019;-69
2024/01/25 05:55:15;;;;;;;;;;;;;;;8.38;70.13;101374.97;4213044;28;20023;-68
2024/01/25 05:57:18;;;;;;;;;;;;;;;8.39;70.32;101368.59;4212919;28;20027;-69
2024/01/25 05:59:20;;;;;;;;;;;;;;;8.41;70.32;101373.84;4204022;28;20043;-67
2024/01/25 06:01:22;;;;;;;;;;;;;;;8.40;70.41;101366.75;4211711;28;20019;-67
2024/01/25 06:03:23;;;;;;;;;;;;;;;8.40;70.75;101385.59;4212019;28;20027;-68
2024/01/25 06:05:25;;;;;;;;;;;;;;;8.40;70.98;101351.47;4211532;28;20283;-70
2024/01/25 06:07:26;;;;;;;;;;;;;;;8.40;70.91;101385.59;4210625;28;20015;-70
2024/01/25 06:09:28;;;;;;;;;;;;;;;8.41;70.97;101384.59;4210946;28;19934;-70
2024/01/25 06:11:33;;;;;;;;;;;;;;;8.41;70.83;101373.84;4209453;28;20445;-67
2024/01/25 06:13:35;;;;;;;;;;;;;;;8.40;70.66;101382.91;4210887;28;20031;-69
2024/01/25 06:15:37;;;;;;;;;;;;;;;8.40;70.55;101404.44;4211368;28;20019;-69
2024/01/25 06:17:39;;;;;;;;;;;;;;;8.39;70.26;101408.16;4211979;28;20592;-70
2024/01/25 06:19:41;;;;;;;;;;;;;;;8.38;70.55;101409.13;4211746;28;20014;-70
2024/01/25 06:21:43;;;;;;;;;;;;;;;8.37;70.85;101400.22;4204852;28;20018;-70
2024/01/25 06:23:45;;;;;;;;;;;;;;;8.37;70.87;101405.59;4210306;28;20568;-70
2024/01/25 06:25:47;;;;;;;;;;;;;;;8.38;70.76;101422.59;4211269;28;20020;-70
2024/01/25 06:27:50;;;;;;;;;;;;;;;8.37;70.31;101407.41;4212037;28;20018;-68
2024/01/25 06:29:52;;;;;;;;;;;;;;;8.36;70.60;101420.03;4208755;28;20007;-68
2024/01/25 06:31:54;;;;;;;;;;;;;;;8.35;70.39;101406.72;4210976;28;20051;-68
2024/01/25 06:33:56;;;;;;;;;;;;;;;8.37;71.04;101420.88;4210169;28;19962;-68
2024/01/25 06:35:58;;;;;;;;;;;;;;;8.37;71.19;101418.19;4211358;28;20447;-68
2024/01/25 06:37:59;;;;;;;;;;;;;;;8.36;70.70;101432.66;4211254;28;20011;-68
2024/01/25 06:40:02;;;;;;;;;;;;;;;8.37;70.94;101431.66;4210477;28;19932;-69
2024/01/25 06:42:05;;;;;;;;;;;;;;;8.37;70.95;101431.66;4207775;28;20043;-68
2024/01/25 06:44:08;;;;;;;;;;;;;;;8.37;70.79;101429.81;4212265;28;20015;-67
2024/01/25 06:46:10;;;;;;;;;;;;;;;8.37;70.47;101440.59;4208941;28;20026;-68
2024/01/25 06:48:11;;;;;;;;;;;;;;;8.37;70.74;101440.59;4212152;28;20043;-69
2024/01/25 06:50:13;;;;;;;;;;;;;;;8.37;70.59;101450.47;4211054;28;20291;-67
2024/01/25 06:52:15;;;;;;;;;;;;;;;8.35;70.38;101461.41;4210355;28;20022;-68
2024/01/25 06:54:17;;;;;;;;;;;;;;;8.35;70.28;101457.88;4213326;28;19976;-67
2024/01/25 06:56:19;;;;;;;;;;;;;;;8.35;70.58;101469.47;4212689;28;20011;-67
2024/01/25 06:58:21;;;;;;;;;;;;;;;8.35;70.53;101466.78;4211178;28;20010;-67
2024/01/25 07:00:24;;;;;;;;;;;;;;;8.35;70.34;101469.47;4211989;28;20007;-67
2024/01/25 07:02:25;;;;;;;;;;;;;;;8.34;70.46;101480.38;4210244;28;20022;-68
2024/01/25 07:04:27;;;;;;;;;;;;;;;8.36;70.24;101487.34;4211224;28;20031;-67
2024/01/25 07:06:29;;;;;;;;;;;;;;;8.36;69.99;101489.19;4211217;28;20022;-67
2024/01/25 07:08:30;;;;;;;;;;;;;;;8.36;70.20;101506.16;4210429;28;20325;-68
2024/01/25 07:10:32;;;;;;;;;;;;;;;8.37;70.32;101504.31;4208204;28;19969;-67
2024/01/25 07:12:34;;;;;;;;;;;;;;;8.38;70.44;101506.88;4209165;28;20050;-68
2024/01/25 07:14:35;;;;;;;;;;;;;;;8.36;69.97;101514.25;4213448;28;20405;-66
2024/01/25 07:16:39;;;;;;;;;;;;;;;8.37;70.20;101517.78;4210263;28;19932;-67
2024/01/25 07:18:41;;;;;;;;;;;;;;;8.35;70.38;101520.63;4210970;28;20140;-67
2024/01/25 07:20:42;;;;;;;;;;;;;;;8.36;70.42;101508.88;4211002;28;20019;-66
2024/01/25 07:22:45;;;;;;;;;;;;;;;8.37;70.62;101507.00;4212973;28;20032;-67
2024/01/25 07:24:46;;;;;;;;;;;;;;;8.38;70.17;101508.72;4208013;28;20011;-66
2024/01/25 07:26:48;;;;;;;;;;;;;;;8.37;70.43;101520.47;4211624;28;20301;-66
2024/01/25 07:28:50;;;;;;;;;;;;;;;8.37;70.15;101517.78;4210123;28;20015;-67
2024/01/25 07:30:52;;;;;;;;;;;;;;;8.37;70.54;101523.16;4211637;28;20019;-67
2024/01/25 07:32:55;;;;;;;;;;;;;;;8.37;70.19;101533.94;4197732;28;20028;-67
2024/01/25 07:34:57;;;;;;;;;;;;;;;8.35;70.56;101544.00;4207592;28;19924;-67
2024/01/25 07:36:59;;;;;;;;;;;;;;;8.35;70.30;101538.63;4210305;28;20417;-66
2024/01/25 07:39:01;;;;;;;;;;;;;;;8.35;70.21;101542.16;4212069;28;20031;-66
2024/01/25 07:41:03;;;;;;;;;;;;;;;8.35;70.57;101542.16;4212470;28;20106;-67
2024/01/25 07:43:05;;;;;;;;;;;;;;;8.36;70.85;101543.00;4210791;28;20023;-66
2024/01/25 07:45:08;;;;;;;;;;;;;;;8.37;70.74;101539.31;4211875;28;20015;-65
2024/01/25 07:47:10;;;;;;;;;;;;;;;8.36;70.63;101535.78;4210083;28;20011;-67
2024/01/25 07:49:13;;;;;;;;;;;;;;;8.37;70.61;101547.38;4211767;28;20019;-66
2024/01/25 07:51:14;;;;;;;;;;;;;;;8.37;71.37;101550.06;4210434;28;20007;-65
2024/01/25 07:53:17;;;;;;;;;;;;;;;8.37;71.30;101552.78;4212814;28;20027;-67
2024/01/25 07:55:19;;;;;;;;;;;;;;;8.37;70.74;101552.78;4212649;28;19928;-65
2024/01/25 07:57:21;;;;;;;;;;;;;;;8.36;70.78;101554.63;4212534;28;20042;-66
2024/01/25 07:59:23;;;;;;;;;;;;;;;8.37;71.23;101544.69;4209877;28;20019;-66
2024/01/25 08:01:25;;;;;;;;;;;;;;;8.37;71.31;101567.09;4212950;28;20423;-66
2024/01/25 08:03:27;;;;;;;;;;;;;;;8.38;71.31;101544.56;4212237;28;20509;-66
2024/01/25 08:05:30;;;;;;;;;;;;;;;8.37;71.29;101569.78;4211079;28;20015;-66
2024/01/25 08:07:32;;;;;;;;;;;;;;;8.37;71.06;101567.09;4211150;28;20016;-69
2024/01/25 08:09:34;;;;;;;;;;;;;;;8.38;70.88;101571.47;4212397;28;20361;-67
2024/01/25 08:11:36;;;;;;;;;;;;;;;8.38;70.69;101570.63;4213399;28;20019;-68
2024/01/25 08:13:38;;;;;;;;;;;;;;;8.38;70.85;101582.25;4212783;28;20022;-67
2024/01/25 08:15:40;;;;;;;;;;;;;;;8.38;71.18;101579.53;4203465;28;19977;-66
2024/01/25 08:17:42;;;;;;;;;;;;;;;8.38;70.72;101584.94;4212460;28;20015;-66
2024/01/25 08:19:44;;;;;;;;;;;;;;;8.38;70.71;101592.16;4212134;28;20014;-66
2024/01/25 08:21:48;;;;;;;;;;;;;;;8.37;70.64;101585.06;4211861;28;20023;-66
2024/01/25 08:23:50;;;;;;;;;;;;;;;8.37;70.32;101602.09;4211607;28;20031;-66
2024/01/25 08:25:51;;;;;;;;;;;;;;;8.38;70.40;101608.31;4212763;28;20012;-66
2024/01/25 08:27:53;;;;;;;;;;;;;;;8.38;70.85;101608.31;4212059;28;20046;-68
2024/01/25 08:29:55;;;;;;;;;;;;;;;8.38;70.91;101611.84;4212223;28;20614;-66
2024/01/25 08:31:56;;;;;;;;;;;;;;;8.39;70.62;101604.66;4211419;28;20023;-66
2024/01/25 08:33:58;;;;;;;;;;;;;;;8.39;70.39;101618.09;4212226;28;19924;-67
2024/01/25 08:35:59;;;;;;;;;;;;;;;8.39;70.51;101616.25;4211783;28;19956;-68
2024/01/25 08:38:02;;;;;;;;;;;;;;;8.39;70.29;101620.78;4211771;28;19950;-68
2024/01/25 08:40:05;;;;;;;;;;;;;;;8.38;70.67;101611.84;4210742;28;20051;-67
2024/01/25 08:42:08;;;;;;;;;;;;;;;8.39;70.42;101629.72;4210631;28;20026;-68
2024/01/25 08:44:09;;;;;;;;;;;;;;;8.39;70.35;101620.78;4211252;28;20452;-69
2024/01/25 08:46:14;;;;;;;;;;;;;;;8.37;69.65;101626.31;4210791;28;20023;-69
2024/01/25 08:48:15;;;;;;;;;;;;;;;8.39;70.20;101610.03;4211323;28;20027;-68
2024/01/25 08:50:17;;;;;;;;;;;;;;;8.41;70.37;101616.94;4211490;28;20521;-69
2024/01/25 08:52:19;;;;;;;;;;;;;;;8.40;70.12;101614.41;4211369;28;20014;-68
2024/01/25 08:54:22;;;;;;;;;;;;;;;8.40;70.18;101627.84;4211328;28;20363;-70
2024/01/25 08:56:24;;;;;;;;;;;;;;;8.40;70.15;101623.34;4211955;28;20436;-68
2024/01/25 08:58:26;;;;;;;;;;;;;;;8.40;70.24;101626.03;4211721;28;20030;-68
2024/01/25 09:00:28;;;;;;;;;;;;;;;8.43;70.47;101623.09;4210876;28;20014;-69
2024/01/25 09:02:32;;;;;;;;;;;;;;;8.42;69.91;101634.81;4210011;28;20019;-69
2024/01/25 09:04:34;;;;;;;;;;;;;;;8.44;69.79;101624.78;4211581;28;20018;-68
2024/01/25 09:06:36;;;;;;;;;;;;;;;8.45;70.17;101633.72;4211594;28;20784;-68
2024/01/25 09:08:38;;;;;;;;;;;;;;;8.43;69.96;101625.78;4211831;28;20039;-69
2024/01/25 09:10:42;;;;;;;;;;;;;;;8.45;70.17;101652.56;4210838;28;20011;-70
2024/01/25 09:12:45;;;;;;;;;;;;;;;8.45;69.74;101642.63;4211491;28;20028;-68
2024/01/25 09:14:46;;;;;;;;;;;;;;;8.44;69.53;101635.53;4211886;28;20031;-69
2024/01/25 09:16:48;;;;;;;;;;;;;;;8.43;69.32;101641.94;4211363;28;19977;-67
2024/01/25 09:18:50;;;;;;;;;;;;;;;8.43;69.28;101665.25;4211363;28;20011;-68
2024/01/25 09:20:51;;;;;;;;;;;;;;;8.44;69.54;101661.63;4210362;28;20016;-67
2024/01/25 09:22:55;;;;;;;;;;;;;;;8.45;69.86;101663.34;4209931;28;19981;-69
2024/01/25 09:24:57;;;;;;;;;;;;;;;8.45;70.48;101669.56;4211306;28;20015;-68
2024/01/25 09:27:00;;;;;;;;;;;;;;;8.45;70.15;101666.03;4211985;28;20025;-67
2024/01/25 09:29:02;;;;;;;;;;;;;;;8.44;69.68;101693.94;4210481;28;20019;-68
2024/01/25 09:31:04;;;;;;;;;;;;;;;8.45;69.55;101674.09;4212759;28;20023;-67
2024/01/25 09:33:06;;;;;;;;;;;;;;;8.45;69.78;101671.41;4211251;28;20035;-68
2024/01/25 09:35:09;;;;;;;;;;;;;;;8.44;69.65;101669.69;4211767;28;20019;-67
2024/01/25 09:37:11;;;;;;;;;;;;;;;8.43;69.46;101674.25;4210953;28;20047;-67
2024/01/25 09:39:12;;;;;;;;;;;;;;;8.43;69.84;101693.09;4211123;28;20010;-67
2024/01/25 09:41:15;;;;;;;;;;;;;;;8.45;70.14;101687.56;4209696;28;20059;-68
2024/01/25 09:43:19;;;;;;;;;;;;;;;8.45;70.04;101691.09;4210926;28;20441;-68
2024/01/25 09:45:21;;;;;;;;;;;;;;;8.44;69.59;101697.47;4211252;28;20022;-69
2024/01/25 09:47:23;;;;;;;;;;;;;;;8.44;69.80;101700.16;4211412;28;20015;-68
2024/01/25 09:49:25;;;;;;;;;;;;;;;8.44;69.42;101702.84;4211471;28;20018;-67
2024/01/25 09:51:28;;;;;;;;;;;;;;;8.44;69.43;101704.69;4211143;28;20027;-67
2024/01/25 09:53:32;;;;;;;;;;;;;;;8.44;69.50;101708.22;4211628;28;20019;-68
2024/01/25 09:55:34;;;;;;;;;;;;;;;8.44;69.65;101705.53;4211126;28;20018;-68
2024/01/25 09:57:36;;;;;;;;;;;;;;;8.44;69.97;101713.63;4211482;28;19928;-68
2024/01/25 09:59:40;;;;;;;;;;;;;;;8.45;70.11;101691.09;4210438;28;20007;-67
2024/01/25 10:01:42;;;;;;;;;;;;;;;8.46;69.87;101713.47;4210797;28;20023;-68
2024/01/25 10:04:08;;;;;;;;;;;;;;;8.47;69.77;101720.56;4210484;28;20023;-69
2024/01/25 10:06:09;;;;;;;;;;;;;;;8.47;69.85;101717.88;4210692;28;20023;-68
2024/01/25 10:08:14;;;;;;;;;;;;;;;8.45;70.01;101712.63;4210973;28;19928;-69
2024/01/25 10:10:16;;;;;;;;;;;;;;;8.45;69.98;101714.50;4212290;28;20034;-68
2024/01/25 10:12:18;;;;;;;;;;;;;;;8.45;69.89;101698.34;4212556;28;20435;-67
2024/01/25 10:14:20;;;;;;;;;;;;;;;8.45;69.95;101718.03;4213790;28;20019;-66
2024/01/25 10:16:23;;;;;;;;;;;;;;;8.45;70.03;101722.56;4213536;28;20662;-66
2024/01/25 10:18:26;;;;;;;;;;;;;;;8.45;69.67;101717.19;4214545;28;19955;-66
2024/01/25 10:20:28;;;;;;;;;;;;;;;8.44;69.75;101716.31;4213519;28;20011;-67
2024/01/25 10:22:30;;;;;;;;;;;;;;;8.45;70.29;101711.78;4214299;28;20469;-67
2024/01/25 10:24:32;;;;;;;;;;;;;;;8.45;70.12;101725.25;4214216;28;20023;-67
2024/01/25 10:26:35;;;;;;;;;;;;;;;8.45;69.95;101718.03;4214595;28;20014;-67
2024/01/25 10:28:36;;;;;;;;;;;;;;;8.44;69.53;101727.06;4213277;28;20478;-68
2024/01/25 10:30:38;;;;;;;;;;;;;;;8.44;69.71;101716.31;4213126;28;19924;-67
2024/01/25 10:32:41;;;;;;;;;;;;;;;8.45;69.42;101730.66;4213924;28;20464;-66
2024/01/25 10:34:44;;;;;;;;;;;;;;;8.44;70.17;101727.06;4212661;28;20015;-67
2024/01/25 10:36:46;;;;;;;;;;;;;;;8.44;69.64;101735.16;4213325;28;20010;-68